NC61 weather

Blackwater Airstrip
Moyock, North Carolina, United States

Public forecast

Using degrees Fahrenheit for public forecast. Weather courtesy of forecast.io.

METAR (pilot weather report)

Closest report is Currituck County Regional Airport, 10.1 nm (18.7 km) ESE. Retrieved 2019/02/15 20:40 UTC (7 minutes ago):

KONX 152040Z AUTO 10SM CLR 20/08 A2976 RMK AO2 T02030077

TAF (pilot weather forecast)

Closest forecast is Elizabeth City Regional Airport & Coast Guard Air Station, 12.1 nm (22.3 km) S. Retrieved 2019/02/15 18:00 UTC (3 hours ago):

TAF TAF COR KECG 151754Z 1518/1618 21015G23KT P6SM SCT150 FM160000 21007KT P6SM VCSH OVC040 FM160600 31006KT 6SM -RA OVC035 FM161200 04011KT 6SM RA OVC009